createdAt,value
2019-02-27T00:00:43.770Z,61.67
2019-02-27T00:01:40.098Z,61.98
2019-02-27T00:02:40.090Z,62.29
2019-02-27T00:03:40.096Z,62.39
2019-02-27T00:04:40.074Z,62.29
2019-02-27T00:05:41.819Z,61.57
2019-02-27T00:06:40.068Z,62.18
2019-02-27T00:07:40.031Z,62.31
2019-02-27T00:08:40.018Z,62.70
2019-02-27T00:09:40.040Z,62.62
2019-02-27T00:10:39.998Z,62.31
2019-02-27T00:11:40.001Z,62.52
2019-02-27T00:12:39.971Z,62.73
2019-02-27T00:13:39.964Z,62.80
2019-02-27T00:14:39.970Z,62.93
2019-02-27T00:15:39.940Z,62.62
2019-02-27T00:16:41.780Z,63.03
2019-02-27T00:17:39.927Z,63.34
2019-02-27T00:18:39.908Z,62.73
2019-02-27T00:19:39.924Z,63.24
2019-02-27T00:20:39.897Z,63.13
2019-02-27T00:21:40.888Z,63.42
2019-02-27T00:22:39.861Z,63.34
2019-02-27T00:23:39.853Z,63.34
2019-02-27T00:24:39.862Z,62.83
2019-02-27T00:25:39.833Z,63.54
2019-02-27T00:26:42.533Z,63.03
2019-02-27T00:27:39.803Z,63.75
2019-02-27T00:28:39.793Z,63.65
2019-02-27T00:29:39.781Z,63.85
2019-02-27T00:30:39.785Z,63.85
2019-02-27T00:31:39.782Z,63.85
2019-02-27T00:32:39.749Z,64.16
2019-02-27T00:33:39.756Z,63.78
2019-02-27T00:34:39.753Z,64.26
2019-02-27T00:35:39.728Z,63.89
2019-02-27T00:36:39.706Z,63.85
2019-02-27T00:37:39.692Z,64.06
2019-02-27T00:38:39.691Z,64.06
2019-02-27T00:39:39.669Z,64.47
2019-02-27T00:40:39.688Z,64.06
2019-02-27T00:41:39.682Z,64.29
2019-02-27T00:42:39.636Z,63.98
2019-02-27T00:43:39.633Z,64.60
2019-02-27T00:44:39.634Z,65.39
2019-02-27T00:45:40.091Z,64.06
2019-02-27T00:46:39.591Z,65.22
2019-02-27T00:47:39.586Z,65.12
2019-02-27T00:48:39.568Z,66.14
2019-02-27T00:49:39.560Z,65.53
2019-02-27T00:50:39.711Z,65.32
2019-02-27T00:51:39.534Z,65.53
2019-02-27T00:52:39.524Z,65.63
2019-02-27T00:53:39.516Z,65.63
2019-02-27T00:54:39.518Z,65.66
2019-02-27T00:55:39.582Z,65.63
2019-02-27T00:56:39.479Z,65.86
2019-02-27T00:57:39.491Z,65.73
2019-02-27T00:58:39.455Z,65.63
2019-02-27T00:59:39.447Z,65.53
2019-02-27T01:00:40.016Z,65.94
2019-02-27T01:01:39.425Z,65.63
2019-02-27T01:02:39.408Z,65.73
2019-02-27T01:03:39.400Z,65.73
2019-02-27T01:04:39.401Z,65.63
2019-02-27T01:05:41.131Z,65.83
2019-02-27T01:06:39.363Z,66.14
2019-02-27T01:07:39.364Z,66.25
2019-02-27T01:08:39.343Z,66.14
2019-02-27T01:09:39.554Z,65.86
2019-02-27T01:10:39.331Z,65.94
2019-02-27T01:11:39.317Z,66.17
2019-02-27T01:12:39.297Z,66.79
2019-02-27T01:13:39.289Z,66.61
2019-02-27T01:14:39.279Z,66.41
2019-02-27T01:15:41.757Z,66.61
2019-02-27T01:16:39.258Z,66.61
2019-02-27T01:17:39.263Z,66.72
2019-02-27T01:18:39.235Z,66.51
2019-02-27T01:19:39.381Z,66.41
2019-02-27T01:20:39.229Z,66.51
2019-02-27T01:21:39.203Z,66.61
2019-02-27T01:22:39.193Z,66.64
2019-02-27T01:23:43.888Z,66.64
2019-02-27T01:24:40.165Z,66.54
2019-02-27T01:25:39.182Z,66.64
2019-02-27T01:26:39.140Z,66.64
2019-02-27T01:27:39.155Z,66.64
2019-02-27T01:28:39.123Z,66.44
2019-02-27T01:29:39.123Z,66.13
2019-02-27T01:30:39.133Z,66.13
2019-02-27T01:31:39.087Z,66.24
2019-02-27T01:32:39.082Z,67.47
2019-02-27T01:33:39.097Z,67.57
2019-02-27T01:34:39.062Z,66.96
2019-02-27T01:35:39.317Z,66.64
2019-02-27T01:36:39.028Z,66.75
2019-02-27T01:37:39.028Z,67.50
2019-02-27T01:38:39.016Z,67.50
2019-02-27T01:39:38.995Z,68.02
2019-02-27T01:40:38.987Z,67.81
2019-02-27T01:41:38.991Z,68.02
2019-02-27T01:42:38.961Z,67.81
2019-02-27T01:43:40.046Z,67.60
2019-02-27T01:44:38.942Z,67.53
2019-02-27T01:45:38.928Z,68.15
2019-02-27T01:46:38.949Z,68.02
2019-02-27T01:47:38.902Z,67.81
2019-02-27T01:48:42.730Z,68.05
2019-02-27T01:49:38.883Z,68.15
2019-02-27T01:50:38.874Z,67.94
2019-02-27T01:51:38.885Z,67.94
2019-02-27T01:52:38.850Z,67.94
2019-02-27T01:53:40.476Z,67.71
2019-02-27T01:54:38.829Z,67.71
2019-02-27T01:55:38.811Z,68.02
2019-02-27T01:56:38.818Z,68.12
2019-02-27T01:57:38.796Z,67.81
2019-02-27T01:58:43.283Z,67.84
2019-02-27T01:59:39.781Z,68.35
2019-02-27T02:00:38.759Z,68.35
2019-02-27T02:01:38.755Z,68.15
2019-02-27T02:02:40.499Z,67.84
2019-02-27T02:03:38.784Z,67.74
2019-02-27T02:04:38.737Z,68.05
2019-02-27T02:05:38.700Z,68.43
2019-02-27T02:06:38.727Z,68.05
2019-02-27T02:07:40.286Z,68.35
2019-02-27T02:08:38.665Z,68.05
2019-02-27T02:09:38.656Z,68.25
2019-02-27T02:10:38.659Z,68.15
2019-02-27T02:11:38.628Z,68.35
2019-02-27T02:12:39.040Z,68.05
2019-02-27T02:13:38.609Z,68.56
2019-02-27T02:14:38.636Z,67.94
2019-02-27T02:15:38.602Z,68.15
2019-02-27T02:16:38.593Z,68.25
2019-02-27T02:17:41.006Z,68.35
2019-02-27T02:18:38.568Z,68.35
2019-02-27T02:19:38.545Z,68.46
2019-02-27T02:20:38.526Z,68.56
2019-02-27T02:21:38.519Z,68.46
2019-02-27T02:22:38.908Z,68.77
2019-02-27T02:23:38.511Z,68.80
2019-02-27T02:24:38.486Z,69.52
2019-02-27T02:25:38.469Z,69.52
2019-02-27T02:26:38.458Z,70.37
2019-02-27T02:27:39.142Z,69.96
2019-02-27T02:28:38.445Z,69.76
2019-02-27T02:29:38.445Z,70.07
2019-02-27T02:30:38.418Z,70.07
2019-02-27T02:31:41.633Z,70.07
2019-02-27T02:32:38.407Z,69.96
2019-02-27T02:33:38.383Z,69.96
2019-02-27T02:34:40.108Z,70.07
2019-02-27T02:35:38.365Z,69.96
2019-02-27T02:36:38.349Z,69.86
2019-02-27T02:37:38.357Z,70.07
2019-02-27T02:38:38.412Z,69.96
2019-02-27T02:39:38.318Z,70.62
2019-02-27T02:40:38.316Z,71.03
2019-02-27T02:41:38.304Z,70.96
2019-02-27T02:42:38.287Z,71.37
2019-02-27T02:43:41.530Z,71.68
2019-02-27T02:44:38.263Z,71.58
2019-02-27T02:45:38.242Z,71.37
2019-02-27T02:46:44.842Z,71.47
2019-02-27T02:47:39.239Z,71.51
2019-02-27T02:48:38.210Z,71.09
2019-02-27T02:49:42.065Z,71.09
2019-02-27T02:50:38.202Z,71.20
2019-02-27T02:51:38.189Z,70.78
2019-02-27T02:52:40.746Z,70.99
2019-02-27T02:53:38.153Z,70.99
2019-02-27T02:54:38.209Z,70.92
2019-02-27T02:55:38.144Z,71.44
2019-02-27T02:56:38.118Z,71.57
2019-02-27T02:57:38.141Z,71.64
2019-02-27T02:58:38.095Z,72.19
2019-02-27T02:59:38.086Z,72.19
2019-02-27T03:00:39.259Z,72.30
2019-02-27T03:01:38.064Z,72.71
2019-02-27T03:02:38.054Z,72.74
2019-02-27T03:03:38.056Z,72.30
2019-02-27T03:04:38.034Z,72.71
2019-02-27T03:05:38.063Z,72.40
2019-02-27T03:06:38.017Z,72.61
2019-02-27T03:07:37.999Z,72.61
2019-02-27T03:08:37.998Z,72.81
2019-02-27T03:09:37.998Z,72.50
2019-02-27T03:10:42.493Z,72.30
2019-02-27T03:11:38.960Z,72.09
2019-02-27T03:12:37.965Z,72.74
2019-02-27T03:13:41.548Z,72.40
2019-02-27T03:14:37.923Z,72.61
2019-02-27T03:15:37.904Z,72.81
2019-02-27T03:16:41.188Z,72.71
2019-02-27T03:17:37.890Z,72.71
2019-02-27T03:18:37.892Z,72.09
2019-02-27T03:19:41.280Z,72.61
2019-02-27T03:20:37.870Z,72.09
2019-02-27T03:21:37.837Z,72.50
2019-02-27T03:22:41.660Z,72.61
2019-02-27T03:23:37.843Z,72.26
2019-02-27T03:24:37.806Z,72.19
2019-02-27T03:25:40.684Z,72.09
2019-02-27T03:26:37.794Z,71.64
2019-02-27T03:27:37.776Z,71.44
2019-02-27T03:28:40.912Z,71.23
2019-02-27T03:29:37.766Z,71.85
2019-02-27T03:30:37.741Z,71.95
2019-02-27T03:31:37.737Z,71.44
2019-02-27T03:32:43.267Z,71.41
2019-02-27T03:33:38.711Z,71.44
2019-02-27T03:34:47.899Z,71.64
2019-02-27T03:35:38.684Z,71.64
2019-02-27T03:36:38.980Z,71.33
2019-02-27T03:37:37.662Z,71.75
2019-02-27T03:38:37.650Z,71.75
2019-02-27T03:39:37.652Z,71.85
2019-02-27T03:40:37.640Z,72.36
2019-02-27T03:41:37.614Z,72.26
2019-02-27T03:42:37.605Z,72.16
2019-02-27T03:43:37.608Z,72.36
2019-02-27T03:44:37.598Z,72.36
2019-02-27T03:45:37.575Z,72.06
2019-02-27T03:46:40.759Z,72.16
2019-02-27T03:47:37.550Z,72.26
2019-02-27T03:48:37.564Z,72.06
2019-02-27T03:49:40.743Z,72.16
2019-02-27T03:50:37.525Z,72.06
2019-02-27T03:51:37.538Z,72.36
2019-02-27T03:52:37.510Z,72.67
2019-02-27T03:53:37.494Z,72.99
2019-02-27T03:54:37.485Z,72.67
2019-02-27T03:55:37.469Z,72.67
2019-02-27T03:56:43.547Z,72.57
2019-02-27T03:57:38.434Z,72.67
2019-02-27T03:58:37.447Z,72.57
2019-02-27T03:59:42.154Z,72.67
2019-02-27T04:00:38.434Z,72.99
2019-02-27T04:01:37.404Z,73.02
2019-02-27T04:02:38.880Z,73.29
2019-02-27T04:03:37.377Z,73.19
2019-02-27T04:04:37.392Z,73.19
2019-02-27T04:05:41.209Z,73.29
2019-02-27T04:06:37.343Z,73.12
2019-02-27T04:07:37.334Z,73.19
2019-02-27T04:08:43.597Z,72.88
2019-02-27T04:09:38.315Z,73.19
2019-02-27T04:10:37.296Z,72.47
2019-02-27T04:11:41.419Z,72.67
2019-02-27T04:12:38.267Z,72.99
2019-02-27T04:13:37.275Z,73.09
2019-02-27T04:14:42.067Z,73.43
2019-02-27T04:15:37.245Z,73.22
2019-02-27T04:16:38.223Z,73.33
2019-02-27T04:17:37.216Z,73.43
2019-02-27T04:18:37.211Z,73.22
2019-02-27T04:19:39.306Z,73.54
2019-02-27T04:20:37.194Z,73.22
2019-02-27T04:21:37.166Z,73.54
2019-02-27T04:22:37.686Z,73.43
2019-02-27T04:23:37.146Z,73.54
2019-02-27T04:24:37.164Z,73.64
2019-02-27T04:25:37.134Z,73.43
2019-02-27T04:26:41.505Z,73.43
2019-02-27T04:27:38.106Z,74.08
2019-02-27T04:28:37.093Z,73.98
2019-02-27T04:29:40.795Z,73.98
2019-02-27T04:30:37.082Z,73.67
2019-02-27T04:31:37.054Z,73.98
2019-02-27T04:32:37.042Z,74.29
2019-02-27T04:33:37.035Z,74.71
2019-02-27T04:34:37.062Z,74.33
2019-02-27T04:35:39.157Z,74.74
2019-02-27T04:36:37.004Z,74.84
2019-02-27T04:37:36.988Z,75.05
2019-02-27T04:38:36.976Z,74.84
2019-02-27T04:39:38.281Z,74.74
2019-02-27T04:40:36.987Z,74.84
2019-02-27T04:41:36.945Z,74.84
2019-02-27T04:42:36.950Z,74.84
2019-02-27T04:43:36.928Z,74.98
2019-02-27T04:44:38.910Z,75.26
2019-02-27T04:45:36.915Z,75.40
2019-02-27T04:46:36.889Z,75.60
2019-02-27T04:47:36.873Z,75.81
2019-02-27T04:48:36.864Z,75.50
2019-02-27T04:49:37.822Z,75.32
2019-02-27T04:50:36.854Z,75.19
2019-02-27T04:51:36.858Z,75.43
2019-02-27T04:52:36.820Z,75.81
2019-02-27T04:53:36.809Z,75.63
2019-02-27T04:54:41.251Z,75.74
2019-02-27T04:55:37.829Z,75.81
2019-02-27T04:56:36.780Z,75.60
2019-02-27T04:57:36.765Z,75.50
2019-02-27T04:58:36.753Z,75.81
2019-02-27T04:59:36.746Z,76.43
2019-02-27T05:00:36.746Z,75.70
2019-02-27T05:01:37.450Z,75.67
2019-02-27T05:02:36.707Z,75.26
2019-02-27T05:03:36.731Z,75.36
2019-02-27T05:04:36.708Z,75.15
2019-02-27T05:05:39.056Z,74.95
2019-02-27T05:06:36.666Z,74.74
2019-02-27T05:07:36.671Z,74.53
2019-02-27T05:08:36.665Z,74.53
2019-02-27T05:09:36.653Z,74.40
2019-02-27T05:10:38.114Z,74.60
2019-02-27T05:11:36.624Z,74.08
2019-02-27T05:12:36.604Z,74.29
2019-02-27T05:13:36.592Z,74.29
2019-02-27T05:14:36.576Z,74.63
2019-02-27T05:15:38.897Z,75.15
2019-02-27T05:16:36.549Z,75.26
2019-02-27T05:17:36.538Z,76.39
2019-02-27T05:18:36.542Z,75.60
2019-02-27T05:19:37.220Z,75.78
2019-02-27T05:20:36.516Z,75.91
2019-02-27T05:21:36.507Z,75.57
2019-02-27T05:22:36.509Z,75.67
2019-02-27T05:23:36.478Z,76.29
2019-02-27T05:24:40.642Z,75.26
2019-02-27T05:25:36.447Z,75.88
2019-02-27T05:26:36.446Z,76.18
2019-02-27T05:27:36.431Z,76.18
2019-02-27T05:28:36.427Z,75.36
2019-02-27T05:29:37.534Z,75.46
2019-02-27T05:30:36.401Z,75.78
2019-02-27T05:31:36.400Z,75.36
2019-02-27T05:32:36.371Z,75.88
2019-02-27T05:33:38.869Z,76.18
2019-02-27T05:34:36.352Z,75.57
2019-02-27T05:35:36.343Z,75.36
2019-02-27T05:36:36.340Z,75.36
2019-02-27T05:37:39.247Z,75.46
2019-02-27T05:38:36.320Z,75.67
2019-02-27T05:39:36.310Z,76.29
2019-02-27T05:40:36.291Z,75.46
2019-02-27T05:41:36.285Z,76.18
2019-02-27T05:42:38.604Z,75.78
2019-02-27T05:43:36.256Z,75.88
2019-02-27T05:44:36.262Z,75.98
2019-02-27T05:45:36.227Z,75.98
2019-02-27T05:46:38.503Z,75.67
2019-02-27T05:47:36.203Z,75.78
2019-02-27T05:48:36.195Z,75.57
2019-02-27T05:49:36.237Z,75.67
2019-02-27T05:50:36.178Z,76.50
2019-02-27T05:51:36.155Z,76.29
2019-02-27T05:52:36.164Z,76.39
2019-02-27T05:53:36.169Z,76.60
2019-02-27T05:54:36.130Z,76.50
2019-02-27T05:55:38.981Z,76.09
2019-02-27T05:56:36.126Z,76.53
2019-02-27T05:57:36.146Z,77.56
2019-02-27T05:58:36.125Z,77.36
2019-02-27T05:59:36.070Z,77.50
2019-02-27T06:00:36.062Z,77.67
2019-02-27T06:01:38.302Z,77.67
2019-02-27T06:02:36.058Z,77.56
2019-02-27T06:03:36.025Z,77.81
2019-02-27T06:04:36.025Z,77.39
2019-02-27T06:05:36.646Z,78.12
2019-02-27T06:06:35.993Z,77.50
2019-02-27T06:07:35.988Z,77.39
2019-02-27T06:08:38.092Z,77.39
2019-02-27T06:09:35.959Z,77.84
2019-02-27T06:10:35.943Z,77.64
2019-02-27T06:11:36.015Z,77.74
2019-02-27T06:12:39.995Z,78.05
2019-02-27T06:13:35.910Z,78.26
2019-02-27T06:14:35.902Z,78.05
2019-02-27T06:15:35.909Z,78.09
2019-02-27T06:16:37.543Z,77.84
2019-02-27T06:17:43.130Z,78.09
2019-02-27T06:18:36.851Z,77.98
2019-02-27T06:19:35.871Z,77.95
2019-02-27T06:20:35.829Z,78.40
2019-02-27T06:21:35.871Z,78.81
2019-02-27T06:22:35.829Z,78.44
2019-02-27T06:23:37.730Z,78.75
2019-02-27T06:24:35.801Z,79.02
2019-02-27T06:25:35.827Z,78.64
2019-02-27T06:26:35.802Z,79.16
2019-02-27T06:27:37.201Z,79.06
2019-02-27T06:28:36.152Z,79.16
2019-02-27T06:29:35.814Z,79.16
2019-02-27T06:30:35.733Z,79.06
2019-02-27T06:31:38.845Z,78.96
2019-02-27T06:32:35.810Z,79.06
2019-02-27T06:33:35.701Z,78.64
2019-02-27T06:34:35.673Z,78.40
2019-02-27T06:35:35.685Z,78.61
2019-02-27T06:36:35.650Z,79.23
2019-02-27T06:37:35.638Z,78.81
2019-02-27T06:38:35.641Z,78.71
2019-02-27T06:39:35.618Z,78.71
2019-02-27T06:40:35.615Z,78.75
2019-02-27T06:41:35.607Z,78.71
2019-02-27T06:42:35.612Z,78.71
2019-02-27T06:43:35.587Z,78.30
2019-02-27T06:44:36.638Z,77.98
2019-02-27T06:45:35.553Z,77.98
2019-02-27T06:46:35.544Z,77.84
2019-02-27T06:47:36.213Z,78.16
2019-02-27T06:48:35.584Z,77.95
2019-02-27T06:49:35.514Z,78.26
2019-02-27T06:50:35.518Z,78.16
2019-02-27T06:51:35.922Z,78.36
2019-02-27T06:52:35.471Z,77.74
2019-02-27T06:53:35.473Z,77.74
2019-02-27T06:54:35.470Z,77.53
2019-02-27T06:55:35.448Z,77.84
2019-02-27T06:56:35.429Z,77.70
2019-02-27T06:57:35.414Z,77.29
2019-02-27T06:58:35.418Z,76.67
2019-02-27T06:59:35.430Z,76.98
2019-02-27T07:00:36.762Z,76.78
2019-02-27T07:01:35.372Z,76.26
2019-02-27T07:02:35.374Z,76.05
2019-02-27T07:03:35.363Z,76.57
2019-02-27T07:04:36.486Z,76.36
2019-02-27T07:05:35.351Z,76.36
2019-02-27T07:06:36.879Z,76.36
2019-02-27T07:07:35.325Z,75.63
2019-02-27T07:08:37.920Z,75.63
2019-02-27T07:09:35.285Z,75.70
2019-02-27T07:10:35.282Z,76.26
2019-02-27T07:11:35.290Z,75.84
2019-02-27T07:12:35.254Z,75.70
2019-02-27T07:13:35.239Z,75.60
2019-02-27T07:14:36.502Z,75.09
2019-02-27T07:15:35.223Z,74.77
2019-02-27T07:16:35.203Z,74.98
2019-02-27T07:17:35.190Z,74.77
2019-02-27T07:18:36.495Z,74.63
2019-02-27T07:19:35.185Z,74.22
2019-02-27T07:20:35.160Z,74.33
2019-02-27T07:21:35.160Z,74.02
2019-02-27T07:22:35.135Z,73.91
2019-02-27T07:23:35.330Z,73.81
2019-02-27T07:24:35.123Z,73.50
2019-02-27T07:25:35.100Z,73.50
2019-02-27T07:26:35.097Z,73.39
2019-02-27T07:27:35.089Z,73.57
2019-02-27T07:28:35.075Z,73.26
2019-02-27T07:29:35.091Z,73.26
2019-02-27T07:30:35.086Z,73.05
2019-02-27T07:31:35.056Z,72.85
2019-02-27T07:32:35.053Z,72.61
2019-02-27T07:33:35.024Z,72.81
2019-02-27T07:34:35.023Z,72.50
2019-02-27T07:35:34.991Z,72.71
2019-02-27T07:36:35.962Z,72.71
2019-02-27T07:37:34.972Z,72.61
2019-02-27T07:38:34.963Z,72.57
2019-02-27T07:39:34.963Z,72.71
2019-02-27T07:40:34.932Z,72.57
2019-02-27T07:41:34.930Z,72.36
2019-02-27T07:42:36.310Z,72.57
2019-02-27T07:43:34.958Z,72.16
2019-02-27T07:44:35.844Z,72.06
2019-02-27T07:45:34.899Z,72.16
2019-02-27T07:46:35.572Z,72.02
2019-02-27T07:47:34.851Z,71.95
2019-02-27T07:48:34.858Z,71.51
2019-02-27T07:49:34.850Z,71.51
2019-02-27T07:50:34.826Z,71.51
2019-02-27T07:51:34.819Z,71.51
2019-02-27T07:52:34.813Z,71.41
2019-02-27T07:53:34.789Z,70.89
2019-02-27T07:54:34.800Z,71.26
2019-02-27T07:55:34.823Z,71.30
2019-02-27T07:56:34.759Z,70.75
2019-02-27T07:57:34.756Z,70.86
2019-02-27T07:58:34.780Z,70.89
2019-02-27T07:59:37.959Z,70.89
2019-02-27T08:00:34.761Z,70.47
2019-02-27T08:01:43.500Z,71.06
2019-02-27T08:02:36.225Z,70.96
2019-02-27T08:03:34.693Z,71.26
2019-02-27T08:04:34.664Z,71.16
2019-02-27T08:05:34.665Z,70.65
2019-02-27T08:06:37.368Z,70.86
2019-02-27T08:07:34.635Z,70.51
2019-02-27T08:08:34.638Z,70.41
2019-02-27T08:09:34.644Z,70.31
2019-02-27T08:10:36.862Z,70.00
2019-02-27T08:11:34.586Z,69.79
2019-02-27T08:12:34.584Z,70.20
2019-02-27T08:13:34.593Z,69.96
2019-02-27T08:14:36.755Z,70.17
2019-02-27T08:15:34.596Z,70.58
2019-02-27T08:16:36.943Z,70.28
2019-02-27T08:17:34.519Z,69.45
2019-02-27T08:18:37.720Z,69.65
2019-02-27T08:19:34.508Z,69.35
2019-02-27T08:20:34.511Z,69.24
2019-02-27T08:21:34.489Z,69.35
2019-02-27T08:22:34.467Z,67.97
2019-02-27T08:23:34.495Z,68.39
2019-02-27T08:24:34.444Z,67.97
2019-02-27T08:25:34.711Z,67.87
2019-02-27T08:26:36.450Z,67.46
2019-02-27T08:27:34.410Z,67.36
2019-02-27T08:28:34.395Z,67.02
2019-02-27T08:29:34.394Z,67.43
2019-02-27T08:30:34.401Z,67.02
2019-02-27T08:31:34.410Z,66.71
2019-02-27T08:32:34.624Z,66.71
2019-02-27T08:33:34.358Z,67.09
2019-02-27T08:34:34.327Z,66.78
2019-02-27T08:35:34.370Z,66.34
2019-02-27T08:36:34.306Z,66.44
2019-02-27T08:37:34.312Z,65.89
2019-02-27T08:38:34.286Z,64.63
2019-02-27T08:39:34.274Z,63.44
2019-02-27T08:40:34.280Z,60.89
2019-02-27T08:41:34.255Z,59.25
2019-02-27T08:42:36.848Z,57.12
2019-02-27T08:43:34.291Z,54.69
2019-02-27T08:44:34.220Z,53.64
2019-02-27T08:45:34.220Z,53.24
2019-02-27T08:46:36.995Z,53.34
2019-02-27T08:47:34.182Z,53.34
2019-02-27T08:48:34.174Z,53.36
2019-02-27T08:49:34.160Z,53.75
2019-02-27T08:50:34.170Z,52.73
2019-02-27T08:51:34.139Z,52.37
2019-02-27T08:52:34.133Z,51.56
2019-02-27T08:53:34.569Z,50.09
2019-02-27T08:54:34.106Z,49.33
2019-02-27T08:55:34.123Z,48.67
2019-02-27T08:56:34.079Z,48.04
2019-02-27T08:57:34.165Z,47.10
2019-02-27T08:58:34.057Z,47.53
2019-02-27T08:59:34.059Z,47.75
2019-02-27T09:00:34.058Z,48.31
2019-02-27T09:01:34.032Z,49.83
2019-02-27T09:02:34.012Z,52.40
2019-02-27T09:03:36.360Z,51.79
2019-02-27T09:04:33.992Z,51.38
2019-02-27T09:05:33.992Z,50.19
2019-02-27T09:06:34.008Z,48.92
2019-02-27T09:07:36.484Z,48.27
2019-02-27T09:08:33.946Z,47.71
2019-02-27T09:09:36.127Z,46.04
2019-02-27T09:10:33.929Z,44.99
2019-02-27T09:11:33.936Z,44.07
2019-02-27T09:12:33.914Z,45.76
2019-02-27T09:13:33.894Z,47.02
2019-02-27T09:14:33.888Z,47.33
2019-02-27T09:15:33.865Z,47.18
2019-02-27T09:16:33.867Z,45.54
2019-02-27T09:17:33.850Z,45.42
2019-02-27T09:18:36.481Z,45.43
2019-02-27T09:19:33.821Z,46.59
2019-02-27T09:20:33.810Z,48.08
2019-02-27T09:21:33.807Z,48.33
2019-02-27T09:22:36.552Z,50.09
2019-02-27T09:23:33.778Z,49.60
2019-02-27T09:24:33.784Z,50.82
2019-02-27T09:25:33.753Z,51.46
2019-02-27T09:26:35.833Z,50.52
2019-02-27T09:27:35.312Z,50.42
2019-02-27T09:28:33.719Z,50.06
2019-02-27T09:29:33.723Z,49.45
2019-02-27T09:30:33.712Z,49.22
2019-02-27T09:31:34.733Z,48.72
2019-02-27T09:32:33.671Z,48.69
2019-02-27T09:33:38.931Z,47.02
2019-02-27T09:34:34.684Z,45.76
2019-02-27T09:35:38.324Z,46.47
2019-02-27T09:36:34.638Z,46.04
2019-02-27T09:37:34.605Z,45.72
2019-02-27T09:38:33.606Z,44.26
2019-02-27T09:39:35.112Z,43.41
2019-02-27T09:40:38.543Z,42.03
2019-02-27T09:41:34.581Z,41.20
2019-02-27T09:42:33.559Z,41.20
2019-02-27T09:43:33.562Z,41.22
2019-02-27T09:44:36.351Z,41.71
2019-02-27T09:45:34.874Z,41.00
2019-02-27T09:46:33.543Z,41.55
2019-02-27T09:47:33.507Z,41.75
2019-02-27T09:48:34.080Z,41.85
2019-02-27T09:49:33.483Z,42.37
2019-02-27T09:50:33.471Z,43.16
2019-02-27T09:51:33.484Z,42.25
2019-02-27T09:52:33.448Z,42.15
2019-02-27T09:53:33.935Z,42.05
2019-02-27T09:54:34.038Z,41.95
2019-02-27T09:55:33.411Z,40.82
2019-02-27T09:56:33.402Z,41.02
2019-02-27T09:57:35.338Z,41.06
2019-02-27T09:58:33.388Z,41.69
2019-02-27T09:59:33.365Z,42.19
2019-02-27T10:00:33.479Z,41.83
2019-02-27T10:01:35.149Z,41.61
2019-02-27T10:02:33.654Z,40.80
2019-02-27T10:03:33.380Z,40.72
2019-02-27T10:04:33.316Z,41.36
2019-02-27T10:05:36.256Z,43.00
2019-02-27T10:06:33.310Z,43.16
2019-02-27T10:07:33.287Z,45.15
2019-02-27T10:08:33.286Z,45.74
2019-02-27T10:09:34.875Z,43.87
2019-02-27T10:10:33.281Z,44.15
2019-02-27T10:11:33.229Z,43.44
2019-02-27T10:12:33.246Z,43.14
2019-02-27T10:13:35.447Z,42.80
2019-02-27T10:14:33.205Z,42.07
2019-02-27T10:15:34.471Z,41.55
2019-02-27T10:16:34.861Z,41.24
2019-02-27T10:17:33.174Z,42.27
2019-02-27T10:18:33.154Z,42.17
2019-02-27T10:19:33.140Z,41.49
2019-02-27T10:20:36.696Z,43.04
2019-02-27T10:21:33.138Z,43.37
2019-02-27T10:22:33.142Z,43.87
2019-02-27T10:23:33.097Z,43.98
2019-02-27T10:24:33.089Z,42.84
2019-02-27T10:25:33.073Z,43.43
2019-02-27T10:26:33.076Z,43.02
2019-02-27T10:27:33.077Z,42.47
2019-02-27T10:28:35.641Z,42.29
2019-02-27T10:29:34.027Z,42.31
2019-02-27T10:30:33.016Z,41.69
2019-02-27T10:31:33.007Z,42.29
2019-02-27T10:32:36.457Z,41.89
2019-02-27T10:33:33.011Z,41.60
2019-02-27T10:34:32.973Z,43.14
2019-02-27T10:35:34.706Z,43.44
2019-02-27T10:36:32.947Z,42.76
2019-02-27T10:37:32.971Z,42.76
2019-02-27T10:38:32.940Z,43.37
2019-02-27T10:39:36.894Z,43.37
2019-02-27T10:40:32.911Z,43.24
2019-02-27T10:41:32.897Z,41.78
2019-02-27T10:42:32.879Z,40.64
2019-02-27T10:43:32.934Z,39.61
2019-02-27T10:44:33.929Z,39.70
2019-02-27T10:45:32.874Z,38.57
2019-02-27T10:46:32.834Z,38.64
2019-02-27T10:47:33.667Z,38.12
2019-02-27T10:48:32.839Z,38.32
2019-02-27T10:49:32.844Z,38.42
2019-02-27T10:50:35.389Z,38.60
2019-02-27T10:51:32.785Z,38.37
2019-02-27T10:52:32.792Z,37.45
2019-02-27T10:53:32.799Z,36.33
2019-02-27T10:54:32.758Z,36.62
2019-02-27T10:55:32.756Z,36.22
2019-02-27T10:56:32.777Z,36.54
2019-02-27T10:57:38.177Z,36.27
2019-02-27T10:58:33.707Z,37.68
2019-02-27T10:59:32.692Z,37.70
2019-02-27T11:00:32.681Z,37.09
2019-02-27T11:01:33.204Z,37.80
2019-02-27T11:02:32.660Z,37.46
2019-02-27T11:03:32.654Z,36.33
2019-02-27T11:04:32.635Z,36.40
2019-02-27T11:05:32.619Z,35.90
2019-02-27T11:06:34.207Z,36.80
2019-02-27T11:07:32.605Z,35.70
2019-02-27T11:08:32.611Z,35.60
2019-02-27T11:09:32.588Z,35.70
2019-02-27T11:10:32.566Z,35.71
2019-02-27T11:11:32.563Z,36.62
2019-02-27T11:12:32.543Z,36.32
2019-02-27T11:13:32.542Z,36.40
2019-02-27T11:14:32.782Z,35.82
2019-02-27T11:15:32.521Z,35.50
2019-02-27T11:16:32.531Z,35.70
2019-02-27T11:17:32.499Z,35.28
2019-02-27T11:18:32.483Z,35.19
2019-02-27T11:19:34.605Z,35.80
2019-02-27T11:20:32.492Z,35.97
2019-02-27T11:21:32.458Z,34.04
2019-02-27T11:22:32.432Z,33.11
2019-02-27T11:23:32.423Z,32.77
2019-02-27T11:24:32.428Z,32.14
2019-02-27T11:25:32.401Z,32.24
2019-02-27T11:26:33.341Z,31.54
2019-02-27T11:27:32.377Z,32.32
2019-02-27T11:28:32.370Z,32.14
2019-02-27T11:29:32.402Z,31.64
2019-02-27T11:30:35.987Z,32.04
2019-02-27T11:31:32.326Z,31.94
2019-02-27T11:32:32.331Z,33.19
2019-02-27T11:33:33.466Z,33.20
2019-02-27T11:34:32.305Z,33.94
2019-02-27T11:35:32.282Z,34.07
2019-02-27T11:36:32.268Z,35.33
2019-02-27T11:37:32.285Z,36.96
2019-02-27T11:38:32.267Z,36.69
2019-02-27T11:39:32.903Z,37.90
2019-02-27T11:40:32.231Z,37.87
2019-02-27T11:41:32.348Z,36.67
2019-02-27T11:42:32.743Z,36.57
2019-02-27T11:43:32.204Z,36.07
2019-02-27T11:44:32.215Z,36.67
2019-02-27T11:45:32.168Z,36.35
2019-02-27T11:46:32.158Z,36.86
2019-02-27T11:47:32.151Z,36.66
2019-02-27T11:48:32.134Z,36.33
2019-02-27T11:49:32.146Z,35.85
2019-02-27T11:50:32.122Z,35.55
2019-02-27T11:51:32.119Z,35.75
2019-02-27T11:52:32.094Z,35.73
2019-02-27T11:53:35.647Z,35.61
2019-02-27T11:54:32.078Z,34.69
2019-02-27T11:55:32.067Z,34.07
2019-02-27T11:56:32.058Z,33.47
2019-02-27T11:57:32.037Z,34.29
2019-02-27T11:58:32.047Z,34.91
2019-02-27T11:59:32.010Z,35.75
2019-02-27T12:00:32.007Z,35.85
2019-02-27T12:01:32.222Z,35.75
2019-02-27T12:02:36.890Z,35.77
2019-02-27T12:03:32.963Z,35.65
2019-02-27T12:04:31.993Z,35.03
2019-02-27T12:05:34.307Z,34.49
2019-02-27T12:06:31.939Z,33.79
2019-02-27T12:07:31.928Z,34.31
2019-02-27T12:08:31.909Z,35.13
2019-02-27T12:09:34.978Z,35.35
2019-02-27T12:10:31.904Z,35.25
2019-02-27T12:11:31.878Z,34.94
2019-02-27T12:12:31.864Z,35.65
2019-02-27T12:13:32.342Z,34.52
2019-02-27T12:14:31.841Z,33.82
2019-02-27T12:15:31.864Z,34.14
2019-02-27T12:16:33.354Z,34.42
2019-02-27T12:17:31.866Z,34.84
2019-02-27T12:18:32.171Z,35.36
2019-02-27T12:19:31.788Z,35.25
2019-02-27T12:20:31.797Z,35.86
2019-02-27T12:21:31.798Z,35.95
2019-02-27T12:22:32.952Z,35.16
2019-02-27T12:23:31.739Z,35.05
2019-02-27T12:24:31.729Z,35.14
2019-02-27T12:25:32.402Z,34.12
2019-02-27T12:26:34.435Z,35.33
2019-02-27T12:27:48.767Z,34.11
2019-02-27T12:28:32.690Z,33.79
2019-02-27T12:29:31.683Z,33.25
2019-02-27T12:30:31.668Z,33.17
2019-02-27T12:31:31.672Z,34.00
2019-02-27T12:32:31.651Z,34.11
2019-02-27T12:33:31.675Z,33.89
2019-02-27T12:34:34.029Z,33.55
2019-02-27T12:35:32.612Z,32.62
2019-02-27T12:36:31.626Z,31.82
2019-02-27T12:37:34.745Z,32.10
2019-02-27T12:38:31.576Z,31.05
2019-02-27T12:39:31.566Z,29.93
2019-02-27T12:40:31.548Z,30.01
2019-02-27T12:41:32.512Z,29.41
2019-02-27T12:42:37.078Z,30.40
2019-02-27T12:43:32.549Z,30.29
2019-02-27T12:44:31.513Z,28.50
2019-02-27T12:45:31.550Z,28.77
2019-02-27T12:46:31.858Z,28.78
2019-02-27T12:47:31.471Z,28.68
2019-02-27T12:48:31.461Z,29.68
2019-02-27T12:49:31.455Z,29.61
2019-02-27T12:50:31.702Z,30.74
2019-02-27T12:51:31.755Z,30.24
2019-02-27T12:52:31.415Z,30.82